createdAt,value
2017-10-13T00:00:29.468Z,101113
2017-10-13T00:01:29.745Z,101113
2017-10-13T00:02:29.612Z,101118
2017-10-13T00:03:29.671Z,101115
2017-10-13T00:04:29.681Z,101121
2017-10-13T00:05:29.760Z,101119
2017-10-13T00:06:29.809Z,101122
2017-10-13T00:07:30.203Z,101126
2017-10-13T00:08:29.941Z,101124
2017-10-13T00:09:29.993Z,101124
2017-10-13T00:10:30.530Z,101120
2017-10-13T00:11:30.208Z,101124
2017-10-13T00:12:30.257Z,101123
2017-10-13T00:13:30.469Z,101129
2017-10-13T00:14:30.280Z,101124
2017-10-13T00:15:30.357Z,101132
2017-10-13T00:16:30.463Z,101124
2017-10-13T00:17:30.476Z,101129
2017-10-13T00:18:30.469Z,101127
2017-10-13T00:19:30.804Z,101123
2017-10-13T00:20:30.620Z,101127
2017-10-13T00:21:30.660Z,101122
2017-10-13T00:22:30.617Z,101126
2017-10-13T00:23:30.665Z,101124
2017-10-13T00:24:30.736Z,101124
2017-10-13T00:25:31.037Z,101120
2017-10-13T00:26:30.767Z,101117
2017-10-13T00:27:30.754Z,101116
2017-10-13T00:28:30.840Z,101119
2017-10-13T00:29:30.903Z,101120
2017-10-13T00:31:31.027Z,101118
2017-10-13T00:32:31.010Z,101115
2017-10-13T00:33:31.160Z,101113
2017-10-13T00:34:31.132Z,101108
2017-10-13T00:35:31.230Z,101112
2017-10-13T00:36:31.558Z,101111
2017-10-13T00:37:31.345Z,101112
2017-10-13T00:38:31.336Z,101110
2017-10-13T00:39:31.864Z,101117
2017-10-13T00:40:31.518Z,101110
2017-10-13T00:41:31.515Z,101109
2017-10-13T00:42:31.919Z,101110
2017-10-13T00:43:31.729Z,101115
2017-10-13T00:44:31.750Z,101110
2017-10-13T00:45:31.747Z,101115
2017-10-13T00:46:31.787Z,101115
2017-10-13T00:47:31.903Z,101117
2017-10-13T00:48:32.282Z,101119
2017-10-13T00:49:31.991Z,101116
2017-10-13T00:50:32.020Z,101120
2017-10-13T00:51:32.077Z,101116
2017-10-13T00:52:32.187Z,101116
2017-10-13T00:53:32.172Z,101117
2017-10-13T00:54:32.487Z,101113
2017-10-13T00:55:32.287Z,101112
2017-10-13T00:56:32.391Z,101115
2017-10-13T00:57:32.415Z,101119
2017-10-13T00:58:32.514Z,101119
2017-10-13T00:59:32.586Z,101118
2017-10-13T01:00:33.174Z,101113
2017-10-13T01:01:32.585Z,101109
2017-10-13T01:02:32.743Z,101104
2017-10-13T01:03:32.752Z,101111
2017-10-13T01:04:32.850Z,101112
2017-10-13T01:05:32.812Z,101115
2017-10-13T01:06:33.218Z,101117
2017-10-13T01:07:32.901Z,101117
2017-10-13T01:08:32.937Z,101115
2017-10-13T01:09:33.062Z,101115
2017-10-13T01:10:33.053Z,101118
2017-10-13T01:11:33.079Z,101116
2017-10-13T01:12:33.481Z,101125
2017-10-13T01:13:33.324Z,101122
2017-10-13T01:14:33.305Z,101123
2017-10-13T01:15:33.454Z,101123
2017-10-13T01:16:33.407Z,101124
2017-10-13T01:17:33.601Z,101120
2017-10-13T01:18:33.773Z,101121
2017-10-13T01:19:33.576Z,101113
2017-10-13T01:20:33.614Z,101114
2017-10-13T01:21:33.688Z,101114
2017-10-13T01:22:33.763Z,101115
2017-10-13T01:23:33.848Z,101114
2017-10-13T01:24:34.183Z,101117
2017-10-13T01:25:33.952Z,101119
2017-10-13T01:26:34.066Z,101119
2017-10-13T01:27:34.132Z,101123
2017-10-13T01:28:34.085Z,101119
2017-10-13T01:29:34.145Z,101117
2017-10-13T01:30:34.426Z,101126
2017-10-13T01:31:34.276Z,101119
2017-10-13T01:32:34.276Z,101118
2017-10-13T01:33:34.347Z,101125
2017-10-13T01:34:34.384Z,101122
2017-10-13T01:35:34.401Z,101119
2017-10-13T01:36:34.670Z,101119
2017-10-13T01:37:34.511Z,101119
2017-10-13T01:38:34.524Z,101120
2017-10-13T01:39:34.674Z,101118
2017-10-13T01:40:34.638Z,101119
2017-10-13T01:41:34.651Z,101119
2017-10-13T01:42:35.042Z,101115
2017-10-13T01:43:34.769Z,101115
2017-10-13T01:44:34.821Z,101115
2017-10-13T01:45:34.823Z,101116
2017-10-13T01:46:34.833Z,101115
2017-10-13T01:47:34.919Z,101115
2017-10-13T01:48:35.216Z,101121
2017-10-13T01:49:35.018Z,101119
2017-10-13T01:50:35.199Z,101118
2017-10-13T01:51:35.148Z,101122
2017-10-13T01:52:35.227Z,101123
2017-10-13T01:53:35.346Z,101123
2017-10-13T01:54:35.628Z,101125
2017-10-13T01:55:35.441Z,101128
2017-10-13T01:56:35.454Z,101131
2017-10-13T01:57:35.527Z,101132
2017-10-13T01:58:35.520Z,101134
2017-10-13T01:59:35.638Z,101135
2017-10-13T02:00:35.873Z,101130
2017-10-13T02:01:35.740Z,101128
2017-10-13T02:02:35.742Z,101126
2017-10-13T02:03:35.792Z,101131
2017-10-13T02:04:35.810Z,101129
2017-10-13T02:05:35.840Z,101132
2017-10-13T02:06:36.157Z,101131
2017-10-13T02:07:35.917Z,101132
2017-10-13T02:08:35.953Z,101134
2017-10-13T02:09:36.079Z,101136
2017-10-13T02:10:36.016Z,101132
2017-10-13T02:11:36.118Z,101127
2017-10-13T02:12:36.418Z,101126
2017-10-13T02:13:36.138Z,101131
2017-10-13T02:14:36.102Z,101132
2017-10-13T02:15:36.254Z,101133
2017-10-13T02:16:36.317Z,101134
2017-10-13T02:17:36.261Z,101137
2017-10-13T02:18:36.597Z,101137
2017-10-13T02:19:36.419Z,101146
2017-10-13T02:20:36.509Z,101138
2017-10-13T02:21:36.569Z,101134
2017-10-13T02:22:36.688Z,101132
2017-10-13T02:23:36.675Z,101134
2017-10-13T02:24:37.007Z,101130
2017-10-13T02:25:36.818Z,101135
2017-10-13T02:26:36.784Z,101124
2017-10-13T02:27:36.864Z,101124
2017-10-13T02:28:36.910Z,101127
2017-10-13T02:29:37.046Z,101131
2017-10-13T02:30:37.368Z,101131
2017-10-13T02:31:37.160Z,101129
2017-10-13T02:32:37.137Z,101128
2017-10-13T02:33:37.253Z,101129
2017-10-13T02:34:37.285Z,101129
2017-10-13T02:35:37.371Z,101130
2017-10-13T02:36:37.721Z,101133
2017-10-13T02:37:37.326Z,101133
2017-10-13T02:38:37.439Z,101132
2017-10-13T02:39:37.443Z,101133
2017-10-13T02:40:37.555Z,101131
2017-10-13T02:41:37.585Z,101135
2017-10-13T02:42:37.824Z,101136
2017-10-13T02:43:37.704Z,101140
2017-10-13T02:44:37.779Z,101139
2017-10-13T02:45:37.767Z,101135
2017-10-13T02:46:37.827Z,101143
2017-10-13T02:47:37.912Z,101140
2017-10-13T02:48:38.087Z,101149
2017-10-13T02:49:37.944Z,101147
2017-10-13T02:50:38.052Z,101143
2017-10-13T02:51:38.069Z,101144
2017-10-13T02:52:38.171Z,101149
2017-10-13T02:53:38.222Z,101149
2017-10-13T02:54:38.655Z,101147
2017-10-13T02:55:38.488Z,101145
2017-10-13T02:56:38.427Z,101139
2017-10-13T02:57:38.464Z,101146
2017-10-13T02:58:38.509Z,101144
2017-10-13T02:59:38.521Z,101145
2017-10-13T03:00:38.890Z,101142
2017-10-13T03:01:38.666Z,101143
2017-10-13T03:02:38.818Z,101145
2017-10-13T03:03:38.825Z,101141
2017-10-13T03:04:38.826Z,101141
2017-10-13T03:05:38.971Z,101134
2017-10-13T03:06:39.233Z,101138
2017-10-13T03:07:39.048Z,101134
2017-10-13T03:08:39.060Z,101129
2017-10-13T03:09:39.205Z,101129
2017-10-13T03:10:39.148Z,101129
2017-10-13T03:11:39.294Z,101132
2017-10-13T03:12:39.619Z,101132
2017-10-13T03:13:39.361Z,101134
2017-10-13T03:14:39.387Z,101133
2017-10-13T03:15:39.413Z,101134
2017-10-13T03:16:39.516Z,101134
2017-10-13T03:17:39.612Z,101126
2017-10-13T03:18:39.917Z,101128
2017-10-13T03:19:39.649Z,101129
2017-10-13T03:20:39.900Z,101135
2017-10-13T03:21:39.772Z,101131
2017-10-13T03:22:39.798Z,101129
2017-10-13T03:23:39.942Z,101124
2017-10-13T03:24:40.226Z,101130
2017-10-13T03:25:40.023Z,101123
2017-10-13T03:26:40.044Z,101125
2017-10-13T03:27:39.998Z,101129
2017-10-13T03:28:40.054Z,101129
2017-10-13T03:29:40.139Z,101126
2017-10-13T03:30:40.552Z,101121
2017-10-13T03:31:40.299Z,101124
2017-10-13T03:32:40.270Z,101118
2017-10-13T03:33:40.383Z,101127
2017-10-13T03:34:40.406Z,101117
2017-10-13T03:35:40.350Z,101116
2017-10-13T03:36:40.729Z,101111
2017-10-13T03:37:40.520Z,101113
2017-10-13T03:38:40.646Z,101118
2017-10-13T03:39:40.643Z,101116
2017-10-13T03:40:40.799Z,101111
2017-10-13T03:41:40.802Z,101113
2017-10-13T03:42:41.154Z,101111
2017-10-13T03:43:40.968Z,101116
2017-10-13T03:44:40.947Z,101116
2017-10-13T03:45:41.117Z,101117
2017-10-13T03:46:41.065Z,101120
2017-10-13T03:47:41.172Z,101121
2017-10-13T03:48:41.393Z,101121
2017-10-13T03:49:41.265Z,101124
2017-10-13T03:50:41.227Z,101123
2017-10-13T03:51:41.243Z,101125
2017-10-13T03:52:41.355Z,101125
2017-10-13T03:53:41.384Z,101124
2017-10-13T03:54:41.749Z,101130
2017-10-13T03:55:41.473Z,101123
2017-10-13T03:56:41.558Z,101125
2017-10-13T03:57:41.601Z,101121
2017-10-13T03:58:41.609Z,101125
2017-10-13T03:59:41.723Z,101117
2017-10-13T04:00:41.941Z,101120
2017-10-13T04:01:41.797Z,101120
2017-10-13T04:02:41.883Z,101122
2017-10-13T04:03:41.973Z,101122
2017-10-13T04:04:42.040Z,101121
2017-10-13T04:05:42.089Z,101120
2017-10-13T04:06:42.422Z,101124
2017-10-13T04:07:42.189Z,101126
2017-10-13T04:08:42.320Z,101119
2017-10-13T04:09:42.325Z,101117
2017-10-13T04:10:42.282Z,101120
2017-10-13T04:11:42.395Z,101124
2017-10-13T04:12:42.793Z,101129
2017-10-13T04:13:42.445Z,101131
2017-10-13T04:14:42.585Z,101131
2017-10-13T04:15:42.607Z,101128
2017-10-13T04:16:42.604Z,101118
2017-10-13T04:17:42.818Z,101124
2017-10-13T04:18:43.033Z,101135
2017-10-13T04:19:42.872Z,101129
2017-10-13T04:20:42.878Z,101129
2017-10-13T04:21:42.846Z,101130
2017-10-13T04:22:42.849Z,101129
2017-10-13T04:23:43.007Z,101127
2017-10-13T04:24:43.356Z,101130
2017-10-13T04:25:43.150Z,101134
2017-10-13T04:26:43.202Z,101132
2017-10-13T04:27:43.210Z,101130
2017-10-13T04:28:43.185Z,101131
2017-10-13T04:29:43.310Z,101137
2017-10-13T04:30:43.512Z,101146
2017-10-13T04:31:43.325Z,101141
2017-10-13T04:32:43.399Z,101146
2017-10-13T04:35:52.459Z,101142
2017-10-13T04:36:52.140Z,101146
2017-10-13T04:37:52.140Z,101147
2017-10-13T04:38:52.167Z,101144
2017-10-13T04:41:39.621Z,101149
2017-10-13T04:42:39.360Z,101145
2017-10-13T04:43:39.427Z,101144
2017-10-13T04:44:39.447Z,101145
2017-10-13T04:45:39.476Z,101148
2017-10-13T04:46:39.557Z,101150
2017-10-13T04:47:39.561Z,101154
2017-10-13T04:48:39.586Z,101150
2017-10-13T04:49:39.567Z,101154
2017-10-13T04:50:39.673Z,101148
2017-10-13T04:51:39.667Z,101156
2017-10-13T04:52:39.723Z,101156
2017-10-13T04:53:39.707Z,101155
2017-10-13T04:54:39.842Z,101159
2017-10-13T04:55:39.835Z,101160
2017-10-13T04:56:39.804Z,101163
2017-10-13T04:57:39.874Z,101160
2017-10-13T04:58:39.986Z,101162
2017-10-13T04:59:40.016Z,101164
2017-10-13T05:00:40.209Z,101160
2017-10-13T05:01:40.159Z,101165
2017-10-13T05:02:40.576Z,101157
2017-10-13T05:03:40.632Z,101160
2017-10-13T05:04:40.267Z,101154
2017-10-13T05:11:47.194Z,101161
2017-10-13T05:12:46.949Z,101162
2017-10-13T05:13:46.991Z,101160
2017-10-13T05:14:46.977Z,101159
2017-10-13T05:15:47.042Z,101161
2017-10-13T05:16:47.107Z,101164
2017-10-13T05:17:47.424Z,101162
2017-10-13T05:18:47.115Z,101166
2017-10-13T05:19:47.244Z,101166
2017-10-13T05:20:47.201Z,101166
2017-10-13T05:21:47.325Z,101164
2017-10-13T05:22:47.319Z,101167
2017-10-13T05:23:47.615Z,101171
2017-10-13T05:24:47.399Z,101165
2017-10-13T05:25:47.385Z,101168
2017-10-13T05:26:47.411Z,101160
2017-10-13T05:27:47.550Z,101160
2017-10-13T05:28:47.563Z,101160
2017-10-13T05:29:47.837Z,101155
2017-10-13T05:30:47.626Z,101147
2017-10-13T05:31:47.716Z,101148
2017-10-13T05:32:47.752Z,101150
2017-10-13T05:33:47.752Z,101152
2017-10-13T05:34:47.904Z,101153
2017-10-13T05:35:48.192Z,101151
2017-10-13T05:36:47.946Z,101152
2017-10-13T05:37:47.998Z,101150
2017-10-13T05:38:48.019Z,101151
2017-10-13T05:39:48.073Z,101151
2017-10-13T05:40:48.154Z,101152
2017-10-13T05:41:48.419Z,101148
2017-10-13T05:42:48.275Z,101152
2017-10-13T05:43:48.287Z,101156
2017-10-13T05:44:48.443Z,101151
2017-10-13T05:45:48.464Z,101157
2017-10-13T05:46:48.418Z,101151
2017-10-13T05:47:48.829Z,101152
2017-10-13T05:48:48.574Z,101147
2017-10-13T05:49:48.621Z,101143
2017-10-13T05:50:48.731Z,101143
2017-10-13T05:51:48.760Z,101141
2017-10-13T05:52:48.823Z,101143
2017-10-13T05:53:49.080Z,101146
2017-10-13T05:54:48.877Z,101146
2017-10-13T05:55:48.994Z,101140
2017-10-13T05:56:49.137Z,101151
2017-10-13T05:57:49.230Z,101148
2017-10-13T05:58:49.521Z,101148
2017-10-13T05:59:49.352Z,101146
2017-10-13T06:00:49.355Z,101147
2017-10-13T06:01:49.433Z,101149
2017-10-13T06:02:49.449Z,101153
2017-10-13T06:03:49.506Z,101153
2017-10-13T06:04:49.836Z,101147
2017-10-13T06:05:49.587Z,101153
2017-10-13T06:06:49.655Z,101148
2017-10-13T06:07:49.690Z,101148
2017-10-13T06:08:49.747Z,101150
2017-10-13T06:09:49.771Z,101152
2017-10-13T06:10:50.174Z,101152
2017-10-13T06:11:49.782Z,101154
2017-10-13T06:12:49.901Z,101155
2017-10-13T06:13:49.939Z,101160
2017-10-13T06:14:49.937Z,101160
2017-10-13T06:15:49.904Z,101157
2017-10-13T06:16:50.285Z,101162
2017-10-13T06:17:50.054Z,101163
2017-10-13T06:18:50.141Z,101166
2017-10-13T06:19:50.113Z,101164
2017-10-13T06:20:50.209Z,101165
2017-10-13T06:21:50.297Z,101166
2017-10-13T06:22:50.515Z,101161
2017-10-13T06:23:50.317Z,101162
2017-10-13T06:24:50.379Z,101158
2017-10-13T06:25:50.436Z,101162
2017-10-13T06:26:50.474Z,101161
2017-10-13T06:27:50.481Z,101169
2017-10-13T06:28:50.756Z,101163
2017-10-13T06:29:50.598Z,101169
2017-10-13T06:30:50.614Z,101167
2017-10-13T06:31:50.692Z,101164
2017-10-13T06:32:50.732Z,101167
2017-10-13T06:33:50.896Z,101167
2017-10-13T06:34:51.143Z,101170
2017-10-13T06:35:51.007Z,101168
2017-10-13T06:36:51.050Z,101169
2017-10-13T06:37:51.135Z,101170
2017-10-13T06:38:51.139Z,101171
2017-10-13T06:39:51.134Z,101171
2017-10-13T06:40:51.419Z,101169
2017-10-13T06:41:51.211Z,101171
2017-10-13T06:42:51.291Z,101174
2017-10-13T06:43:51.369Z,101167
2017-10-13T06:44:51.385Z,101173
2017-10-13T06:45:51.388Z,101169
2017-10-13T06:46:51.826Z,101168
2017-10-13T06:47:51.571Z,101170
2017-10-13T06:48:51.682Z,101170
2017-10-13T06:49:51.664Z,101173
2017-10-13T06:50:51.749Z,101173
2017-10-13T06:51:51.769Z,101174
2017-10-13T06:52:52.201Z,101177
2017-10-13T06:53:51.901Z,101173
2017-10-13T06:54:51.978Z,101171
2017-10-13T06:55:52.018Z,101170
2017-10-13T06:56:51.951Z,101168
2017-10-13T06:57:52.052Z,101173
2017-10-13T06:58:52.239Z,101176
2017-10-13T06:59:52.124Z,101171
2017-10-13T07:00:52.076Z,101179
2017-10-13T07:01:52.182Z,101185
2017-10-13T07:02:52.566Z,101188
2017-10-13T07:03:52.288Z,101178
2017-10-13T07:04:52.519Z,101184
2017-10-13T07:05:52.254Z,101164
2017-10-13T07:06:52.387Z,101179
2017-10-13T07:07:52.403Z,101180
2017-10-13T07:08:52.412Z,101181
2017-10-13T07:09:52.510Z,101173
2017-10-13T07:10:52.963Z,101171
2017-10-13T07:11:52.673Z,101175
2017-10-13T07:12:52.669Z,101176
2017-10-13T07:13:52.716Z,101175
2017-10-13T07:14:52.771Z,101179
2017-10-13T07:15:52.834Z,101180
2017-10-13T07:16:52.999Z,101179
2017-10-13T07:17:52.892Z,101181
2017-10-13T07:18:52.910Z,101182
2017-10-13T07:19:52.916Z,101185
2017-10-13T07:20:52.986Z,101188
2017-10-13T07:21:52.966Z,101184
2017-10-13T07:22:53.315Z,101185
2017-10-13T07:23:53.006Z,101194
2017-10-13T07:24:53.172Z,101188
2017-10-13T07:25:53.216Z,101190
2017-10-13T07:26:53.337Z,101194
2017-10-13T07:27:53.285Z,101192
2017-10-13T07:28:53.665Z,101197
2017-10-13T07:29:53.485Z,101199
2017-10-13T07:30:53.572Z,101200
2017-10-13T07:31:53.630Z,101200
2017-10-13T07:32:53.633Z,101201
2017-10-13T07:33:53.769Z,101195
2017-10-13T07:34:54.125Z,101203
2017-10-13T07:35:53.824Z,101201
2017-10-13T07:36:53.826Z,101202
2017-10-13T07:37:53.963Z,101202
2017-10-13T07:38:53.965Z,101206
2017-10-13T07:39:53.907Z,101202
2017-10-13T07:40:54.307Z,101206
2017-10-13T07:41:54.023Z,101208
2017-10-13T07:42:54.133Z,101208
2017-10-13T07:43:54.089Z,101212
2017-10-13T07:44:54.194Z,101212
2017-10-13T07:45:54.173Z,101217
2017-10-13T07:46:54.464Z,101219
2017-10-13T07:47:54.262Z,101219
2017-10-13T07:48:54.374Z,101222
2017-10-13T07:49:54.342Z,101224
2017-10-13T07:50:54.378Z,101223
2017-10-13T07:51:54.518Z,101220
2017-10-13T07:52:54.807Z,101226
2017-10-13T07:53:54.521Z,101223
2017-10-13T07:54:54.600Z,101221
2017-10-13T07:55:54.609Z,101225
2017-10-13T07:56:54.709Z,101227
2017-10-13T07:57:54.714Z,101232
2017-10-13T07:58:55.054Z,101236
2017-10-13T07:59:54.860Z,101231
2017-10-13T08:00:54.936Z,101232
2017-10-13T08:01:55.034Z,101228
2017-10-13T08:02:55.070Z,101232
2017-10-13T08:03:55.074Z,101236
2017-10-13T08:04:55.352Z,101236
2017-10-13T08:05:55.168Z,101232
2017-10-13T08:06:55.141Z,101234
2017-10-13T08:07:55.202Z,101229
2017-10-13T08:08:55.312Z,101239
2017-10-13T08:09:55.343Z,101232
2017-10-13T08:10:55.678Z,101234
2017-10-13T08:11:55.340Z,101233
2017-10-13T08:12:55.417Z,101241
2017-10-13T08:13:55.511Z,101234
2017-10-13T08:14:55.688Z,101237
2017-10-13T08:15:56.009Z,101235
2017-10-13T08:16:56.034Z,101234
2017-10-13T08:17:55.853Z,101234
2017-10-13T08:18:55.884Z,101231
2017-10-13T08:19:56.074Z,101234
2017-10-13T08:20:55.987Z,101234
2017-10-13T08:21:56.102Z,101237
2017-10-13T08:22:56.386Z,101231
2017-10-13T08:23:56.100Z,101236
2017-10-13T08:24:56.206Z,101229
2017-10-13T08:25:56.291Z,101234
2017-10-13T08:26:57.140Z,101230
2017-10-13T08:27:56.433Z,101231
2017-10-13T08:28:56.735Z,101229
2017-10-13T08:29:56.585Z,101236
2017-10-13T08:30:56.499Z,101237
2017-10-13T08:31:56.670Z,101233
2017-10-13T08:32:56.626Z,101238
2017-10-13T08:33:56.650Z,101240
2017-10-13T08:34:57.064Z,101242
2017-10-13T08:35:56.816Z,101236
2017-10-13T08:36:56.812Z,101241
2017-10-13T08:37:56.809Z,101241
2017-10-13T08:38:56.916Z,101238
2017-10-13T08:39:56.930Z,101239
2017-10-13T08:40:57.269Z,101238
2017-10-13T08:41:57.123Z,101243
2017-10-13T08:42:57.117Z,101234
2017-10-13T08:43:57.111Z,101242
2017-10-13T08:44:57.228Z,101236
2017-10-13T08:45:57.228Z,101231
2017-10-13T08:46:57.607Z,101234
2017-10-13T08:47:57.379Z,101237
2017-10-13T08:48:57.530Z,101238
2017-10-13T08:49:57.512Z,101235
2017-10-13T08:50:57.596Z,101239
2017-10-13T08:51:57.730Z,101235
2017-10-13T08:52:58.054Z,101242
2017-10-13T08:53:59.494Z,101244
2017-10-13T08:54:57.832Z,101244
2017-10-13T08:55:57.966Z,101239
2017-10-13T08:56:57.926Z,101247
2017-10-13T08:57:57.909Z,101239
2017-10-13T08:58:58.260Z,101238
2017-10-13T08:59:58.076Z,101240
2017-10-13T09:00:58.208Z,101237
2017-10-13T09:01:58.174Z,101238
2017-10-13T09:02:58.233Z,101235
2017-10-13T09:03:58.555Z,101236
2017-10-13T09:04:58.537Z,101233
2017-10-13T09:05:58.338Z,101233
2017-10-13T09:06:58.353Z,101227
2017-10-13T09:07:58.372Z,101236
2017-10-13T09:08:58.769Z,101227
2017-10-13T09:09:58.440Z,101232
2017-10-13T09:10:59.006Z,101230
2017-10-13T09:11:58.642Z,101220
2017-10-13T09:12:58.741Z,101223
2017-10-13T09:13:58.744Z,101222
2017-10-13T09:14:58.902Z,101229
2017-10-13T09:15:58.931Z,101225
2017-10-13T09:16:59.187Z,101226
2017-10-13T09:17:58.933Z,101229
2017-10-13T09:18:58.968Z,101230
2017-10-13T09:19:59.085Z,101230
2017-10-13T09:20:59.178Z,101233
2017-10-13T09:21:59.243Z,101234
2017-10-13T09:22:59.506Z,101230
2017-10-13T09:23:59.213Z,101236
2017-10-13T09:24:59.253Z,101235
2017-10-13T09:25:59.275Z,101234
2017-10-13T09:26:59.341Z,101232
2017-10-13T09:27:59.416Z,101230
2017-10-13T09:28:59.737Z,101231
2017-10-13T09:29:59.618Z,101225
2017-10-13T09:30:59.677Z,101234
2017-10-13T09:31:59.734Z,101232
2017-10-13T09:32:59.716Z,101235
2017-10-13T09:33:59.825Z,101235
2017-10-13T09:35:00.055Z,101237
2017-10-13T09:35:59.823Z,101238
2017-10-13T09:36:59.832Z,101238
2017-10-13T09:37:59.875Z,101238
2017-10-13T09:38:59.972Z,101241
2017-10-13T09:40:00.075Z,101237
2017-10-13T09:41:00.352Z,101241
2017-10-13T09:42:00.165Z,101239
2017-10-13T09:43:00.158Z,101239
2017-10-13T09:44:00.123Z,101239
2017-10-13T09:45:00.263Z,101248
2017-10-13T09:46:00.266Z,101241
2017-10-13T09:47:00.682Z,101239
2017-10-13T09:48:00.535Z,101242
2017-10-13T09:49:00.472Z,101245
2017-10-13T09:50:00.456Z,101237
2017-10-13T09:51:00.621Z,101242
2017-10-13T09:52:00.546Z,101242
2017-10-13T09:53:00.707Z,101237
2017-10-13T09:54:00.727Z,101242
2017-10-13T09:55:00.743Z,101244
2017-10-13T09:56:00.825Z,101246
2017-10-13T09:57:00.926Z,101237
2017-10-13T09:58:01.144Z,101243
2017-10-13T09:59:01.008Z,101245
2017-10-13T10:00:01.055Z,101248
2017-10-13T10:01:01.150Z,101252
2017-10-13T10:02:01.112Z,101248
2017-10-13T10:03:01.171Z,101249
2017-10-13T10:04:01.534Z,101251
2017-10-13T10:05:01.238Z,101253
2017-10-13T10:06:01.301Z,101259
2017-10-13T10:07:01.313Z,101256
2017-10-13T10:08:01.395Z,101255
2017-10-13T10:09:01.369Z,101251
2017-10-13T10:10:01.735Z,101259
2017-10-13T10:11:01.558Z,101257
2017-10-13T10:12:01.518Z,101255
2017-10-13T10:13:01.582Z,101245
2017-10-13T10:14:03.161Z,101251
2017-10-13T10:15:03.443Z,101261
2017-10-13T10:16:03.532Z,101259
2017-10-13T10:17:03.240Z,101261
2017-10-13T10:18:01.646Z,101258
2017-10-13T10:19:01.776Z,101266
2017-10-13T10:20:01.795Z,101255
2017-10-13T10:21:01.830Z,101257
2017-10-13T10:22:02.108Z,101259
2017-10-13T10:23:01.915Z,101256
2017-10-13T10:24:01.954Z,101257
2017-10-13T10:25:01.984Z,101264
2017-10-13T10:26:02.021Z,101251
2017-10-13T10:27:02.038Z,101261
2017-10-13T10:28:02.385Z,101264
2017-10-13T10:29:02.167Z,101255
2017-10-13T10:30:02.196Z,101259
2017-10-13T10:31:02.272Z,101262
2017-10-13T10:32:02.399Z,101250
2017-10-13T10:33:02.482Z,101263
2017-10-13T10:34:02.913Z,101259
2017-10-13T10:35:02.427Z,101254
2017-10-13T10:36:02.602Z,101258
2017-10-13T10:37:02.886Z,101261
2017-10-13T10:38:02.722Z,101267
2017-10-13T10:39:02.738Z,101266
2017-10-13T10:40:02.974Z,101258
2017-10-13T10:41:03.042Z,101266
2017-10-13T10:42:02.889Z,101270
2017-10-13T10:43:03.038Z,101269
2017-10-13T10:44:03.116Z,101272
2017-10-13T10:45:03.000Z,101272
2017-10-13T10:46:03.182Z,101271
2017-10-13T10:47:03.020Z,101275
2017-10-13T10:48:03.090Z,101269
2017-10-13T10:49:03.184Z,101271
2017-10-13T10:50:03.215Z,101270
2017-10-13T10:51:03.223Z,101262
2017-10-13T10:52:03.744Z,101269
2017-10-13T10:53:03.489Z,101271
2017-10-13T10:54:03.358Z,101264
2017-10-13T10:55:03.499Z,101266
2017-10-13T10:56:03.482Z,101265
2017-10-13T10:57:03.514Z,101263
2017-10-13T10:58:03.805Z,101263
2017-10-13T10:59:03.519Z,101262
2017-10-13T11:00:03.571Z,101253
2017-10-13T11:01:03.596Z,101254
2017-10-13T11:02:03.670Z,101249
2017-10-13T11:03:03.713Z,101244
2017-10-13T11:04:03.976Z,101243
2017-10-13T11:05:03.768Z,101244
2017-10-13T11:06:03.751Z,101244
2017-10-13T11:07:03.845Z,101249
2017-10-13T11:08:03.805Z,101254
2017-10-13T11:09:03.959Z,101255
2017-10-13T11:10:04.240Z,101257
2017-10-13T11:11:04.055Z,101261
2017-10-13T11:12:04.063Z,101261
2017-10-13T11:13:04.149Z,101257
2017-10-13T11:14:04.914Z,101263
2017-10-13T11:15:05.076Z,101267
2017-10-13T11:16:05.112Z,101274
2017-10-13T11:17:05.403Z,101267
2017-10-13T11:18:06.836Z,101271
2017-10-13T11:19:05.261Z,101273
2017-10-13T11:20:04.757Z,101271
2017-10-13T11:21:05.632Z,101269
2017-10-13T11:22:05.175Z,101274
2017-10-13T11:23:04.781Z,101266
2017-10-13T11:24:04.539Z,101258
2017-10-13T11:25:04.904Z,101268
2017-10-13T11:26:05.502Z,101267
2017-10-13T11:27:04.907Z,101262
2017-10-13T11:28:05.043Z,101261
2017-10-13T11:29:05.022Z,101262
2017-10-13T11:31:05.112Z,101256
2017-10-13T11:32:05.006Z,101262
2017-10-13T11:33:05.011Z,101256
2017-10-13T11:34:05.322Z,101251
2017-10-13T11:35:05.096Z,101253
2017-10-13T11:36:06.004Z,101249
2017-10-13T11:37:05.208Z,101256
2017-10-13T11:38:05.261Z,101249
2017-10-13T11:39:05.299Z,101249
2017-10-13T11:40:05.671Z,101248
2017-10-13T11:41:05.435Z,101249
2017-10-13T11:42:05.524Z,101244
2017-10-13T11:43:05.544Z,101247
2017-10-13T11:44:05.548Z,101248
2017-10-13T11:45:05.564Z,101249
2017-10-13T11:46:05.998Z,101248
2017-10-13T11:47:05.810Z,101253
2017-10-13T11:48:05.885Z,101248
2017-10-13T11:49:05.919Z,101253
2017-10-13T11:50:05.904Z,101255
2017-10-13T11:51:05.981Z,101253
2017-10-13T11:52:06.387Z,101254
2017-10-13T11:53:06.175Z,101256
2017-10-13T11:54:06.309Z,101256
2017-10-13T11:55:06.266Z,101255
2017-10-13T11:56:06.319Z,101254
2017-10-13T11:57:06.456Z,101253
2017-10-13T11:58:06.686Z,101253
2017-10-13T11:59:06.480Z,101256
2017-10-13T12:00:06.606Z,101256
2017-10-13T12:01:06.616Z,101254
2017-10-13T12:02:06.580Z,101249
2017-10-13T12:03:06.673Z,101251
2017-10-13T12:04:07.050Z,101253
2017-10-13T12:05:06.764Z,101245
2017-10-13T12:06:06.821Z,101248
2017-10-13T12:07:06.949Z,101258
2017-10-13T12:08:07.008Z,101246
2017-10-13T12:09:06.999Z,101252
2017-10-13T12:10:07.356Z,101252
2017-10-13T12:11:07.088Z,101244
2017-10-13T12:12:07.177Z,101251
2017-10-13T12:13:07.312Z,101252
2017-10-13T12:14:07.339Z,101237
2017-10-13T12:15:07.528Z,101240
2017-10-13T12:16:07.898Z,101242
2017-10-13T12:17:07.473Z,101244
2017-10-13T12:18:07.547Z,101252
2017-10-13T12:19:07.568Z,101236
2017-10-13T12:20:07.713Z,101242
2017-10-13T12:21:07.683Z,101243
2017-10-13T12:22:08.042Z,101244
2017-10-13T12:23:07.913Z,101244
2017-10-13T12:24:07.921Z,101248
2017-10-13T12:25:07.923Z,101249
2017-10-13T12:26:07.864Z,101249
2017-10-13T12:27:07.908Z,101251
2017-10-13T12:28:08.330Z,101254
2017-10-13T12:29:08.126Z,101258
2017-10-13T12:30:08.173Z,101250
2017-10-13T12:31:08.133Z,101247
2017-10-13T12:32:08.286Z,101244
2017-10-13T12:33:08.306Z,101250
2017-10-13T12:34:08.590Z,101250
2017-10-13T12:35:08.325Z,101251
2017-10-13T12:36:08.358Z,101246
2017-10-13T12:37:08.381Z,101247
2017-10-13T12:38:09.393Z,101261
2017-10-13T12:39:08.363Z,101248
2017-10-13T12:40:08.740Z,101248
2017-10-13T12:41:08.538Z,101246